logo
Search for airport 
image banner adimage banner adimage banner ad
image banner ad

LLYS - Yoseftal Hospital

Located in Eilat, Israel

ICAO - , IATA -

Data provided by Airmate  

General information

Coordinates: N29°33'15" E34°56'26"
Elevation is 306 feet MSL.
 
View others Airports in South District

Operational data

Special qualification required
Current time UTC:
Current local time:
Weather at : OJAQ - Aqaba / King Hussein Intl ( 10 km )
METAR: OJAQ 180300Z 36010KT CAVOK 29/12 Q1009 NOSIG
TAF: TAF OJAQ 172300Z 1800/1906 36012KT 8000 NSC PROB30 TEMPO 1801/1816 01020KT 4000 BLDU
View NOTAMs / SUP AIP / TFR affecting this airport [VIEW]
Communications frequencies: [VIEW]

Runways:

Airport contact information

Address: Eilat Israel

Satellite view of LLYS